LBB weather

Los Bravos De Bonfil Airport
Ciudad Del Carmen, Campeche, Mexico

Public forecast

Using degrees Celsius for public forecast. Weather courtesy of forecast.io.

Closest aviation weather report (METAR) to Los Bravos De Bonfil Airport

Closest report is Palenque International Airport, 33.2 nm (61.4 km) SW. Retrieved 2020/01/22 15:50 UTC (45 minutes ago):

MMPQ 221550Z 09007KT 5SM FEW030 21/18 A3004 RMK 8/100 HZY

Closest aviation forecast (TAF) to Los Bravos De Bonfil Airport

Forecast is more than 6 hours old.

Closest forecast is Palenque International Airport, 33.2 nm (61.4 km) SW. Retrieved 2020/01/22 06:33 UTC (10 hours ago):

TAF MMPQ 220533Z 2206/2306 00000KT 4SM HZ OVC030 TEMPO 2211/2215 2SM BR BKN015 FM221700 08008KT 5SM HZ SCT030 FM230100 08005KT 4SM HZ BKN020